sensor_id;sensor_type;location;lat;lon;timestamp;P1;durP1;ratioP1;P2;durP2;ratioP2
1759;SDS011;877;46.266;20.062;2023-07-02T00:01:21;17.47;;;15.87;;
1759;SDS011;877;46.266;20.062;2023-07-02T00:03:46;19.83;;;17.83;;
1759;SDS011;877;46.266;20.062;2023-07-02T00:06:12;19.30;;;16.37;;
1759;SDS011;877;46.266;20.062;2023-07-02T00:08:38;20.53;;;17.13;;
1759;SDS011;877;46.266;20.062;2023-07-02T00:11:07;17.87;;;15.97;;
1759;SDS011;877;46.266;20.062;2023-07-02T00:13:37;19.33;;;17.40;;
1759;SDS011;877;46.266;20.062;2023-07-02T00:16:05;20.00;;;18.00;;
1759;SDS011;877;46.266;20.062;2023-07-02T00:18:30;20.83;;;18.70;;
1759;SDS011;877;46.266;20.062;2023-07-02T00:21:00;20.30;;;18.27;;
1759;SDS011;877;46.266;20.062;2023-07-02T00:23:28;19.87;;;17.87;;
1759;SDS011;877;46.266;20.062;2023-07-02T00:25:54;18.37;;;16.57;;
1759;SDS011;877;46.266;20.062;2023-07-02T00:28:21;18.10;;;16.40;;
1759;SDS011;877;46.266;20.062;2023-07-02T00:30:48;17.53;;;15.83;;
1759;SDS011;877;46.266;20.062;2023-07-02T00:33:15;19.70;;;17.70;;
1759;SDS011;877;46.266;20.062;2023-07-02T00:35:41;19.03;;;17.03;;
1759;SDS011;877;46.266;20.062;2023-07-02T00:38:06;18.67;;;16.67;;
1759;SDS011;877;46.266;20.062;2023-07-02T00:40:32;17.90;;;16.10;;
1759;SDS011;877;46.266;20.062;2023-07-02T00:42:58;18.57;;;16.77;;
1759;SDS011;877;46.266;20.062;2023-07-02T00:45:25;19.77;;;17.80;;
1759;SDS011;877;46.266;20.062;2023-07-02T00:47:51;21.90;;;19.70;;
1759;SDS011;877;46.266;20.062;2023-07-02T00:50:20;21.30;;;19.10;;
1759;SDS011;877;46.266;20.062;2023-07-02T00:52:47;20.60;;;18.50;;
1759;SDS011;877;46.266;20.062;2023-07-02T00:55:13;21.37;;;17.77;;
1759;SDS011;877;46.266;20.062;2023-07-02T00:57:39;18.93;;;17.03;;
1759;SDS011;877;46.266;20.062;2023-07-02T01:00:06;20.30;;;18.20;;
1759;SDS011;877;46.266;20.062;2023-07-02T01:02:32;18.77;;;16.77;;
1759;SDS011;877;46.266;20.062;2023-07-02T01:04:58;19.30;;;17.33;;
1759;SDS011;877;46.266;20.062;2023-07-02T01:07:25;19.23;;;17.17;;
1759;SDS011;877;46.266;20.062;2023-07-02T01:09:51;18.43;;;16.57;;
1759;SDS011;877;46.266;20.062;2023-07-02T01:12:17;19.50;;;17.60;;
1759;SDS011;877;46.266;20.062;2023-07-02T01:14:45;23.10;;;17.20;;
1759;SDS011;877;46.266;20.062;2023-07-02T01:17:25;18.73;;;17.03;;
1759;SDS011;877;46.266;20.062;2023-07-02T01:20:06;19.53;;;17.43;;
1759;SDS011;877;46.266;20.062;2023-07-02T01:22:36;20.00;;;16.87;;
1759;SDS011;877;46.266;20.062;2023-07-02T01:25:03;20.17;;;18.17;;
1759;SDS011;877;46.266;20.062;2023-07-02T01:27:31;20.23;;;18.23;;
1759;SDS011;877;46.266;20.062;2023-07-02T01:29:58;18.07;;;16.27;;
1759;SDS011;877;46.266;20.062;2023-07-02T01:32:24;19.13;;;17.10;;
1759;SDS011;877;46.266;20.062;2023-07-02T01:34:50;21.53;;;17.40;;
1759;SDS011;877;46.266;20.062;2023-07-02T01:37:18;19.80;;;17.80;;
1759;SDS011;877;46.266;20.062;2023-07-02T01:39:45;18.27;;;16.57;;
1759;SDS011;877;46.266;20.062;2023-07-02T01:42:12;19.50;;;17.60;;
1759;SDS011;877;46.266;20.062;2023-07-02T01:44:43;21.87;;;19.60;;
1759;SDS011;877;46.266;20.062;2023-07-02T01:47:09;23.47;;;18.30;;
1759;SDS011;877;46.266;20.062;2023-07-02T01:49:35;20.30;;;18.00;;
1759;SDS011;877;46.266;20.062;2023-07-02T01:52:04;17.83;;;16.00;;
1759;SDS011;877;46.266;20.062;2023-07-02T01:54:32;19.97;;;16.87;;
1759;SDS011;877;46.266;20.062;2023-07-02T01:56:59;20.50;;;17.70;;
1759;SDS011;877;46.266;20.062;2023-07-02T01:59:24;20.93;;;18.23;;
1759;SDS011;877;46.266;20.062;2023-07-02T02:01:50;20.90;;;18.70;;
1759;SDS011;877;46.266;20.062;2023-07-02T02:04:16;20.47;;;18.37;;
1759;SDS011;877;46.266;20.062;2023-07-02T02:06:42;22.73;;;19.67;;
1759;SDS011;877;46.266;20.062;2023-07-02T02:09:09;20.87;;;18.63;;
1759;SDS011;877;46.266;20.062;2023-07-02T02:11:38;19.77;;;17.30;;
1759;SDS011;877;46.266;20.062;2023-07-02T02:14:05;20.80;;;18.77;;
1759;SDS011;877;46.266;20.062;2023-07-02T02:16:31;19.47;;;17.60;;
1759;SDS011;877;46.266;20.062;2023-07-02T02:18:59;20.67;;;18.67;;
1759;SDS011;877;46.266;20.062;2023-07-02T02:21:25;21.00;;;18.70;;
1759;SDS011;877;46.266;20.062;2023-07-02T02:23:52;19.67;;;17.67;;
1759;SDS011;877;46.266;20.062;2023-07-02T02:26:18;24.13;;;18.80;;
1759;SDS011;877;46.266;20.062;2023-07-02T02:28:46;19.70;;;17.87;;
1759;SDS011;877;46.266;20.062;2023-07-02T02:31:13;19.83;;;17.93;;
1759;SDS011;877;46.266;20.062;2023-07-02T02:33:43;19.60;;;17.20;;
1759;SDS011;877;46.266;20.062;2023-07-02T02:36:09;18.87;;;16.97;;
1759;SDS011;877;46.266;20.062;2023-07-02T02:38:35;19.27;;;17.57;;
1759;SDS011;877;46.266;20.062;2023-07-02T02:41:03;19.70;;;17.80;;
1759;SDS011;877;46.266;20.062;2023-07-02T02:43:29;19.77;;;17.57;;
1759;SDS011;877;46.266;20.062;2023-07-02T02:45:56;18.80;;;16.90;;
1759;SDS011;877;46.266;20.062;2023-07-02T02:48:29;18.70;;;16.80;;
1759;SDS011;877;46.266;20.062;2023-07-02T02:50:54;17.77;;;15.83;;
1759;SDS011;877;46.266;20.062;2023-07-02T02:53:20;18.93;;;16.93;;
1759;SDS011;877;46.266;20.062;2023-07-02T02:55:46;17.20;;;15.57;;
1759;SDS011;877;46.266;20.062;2023-07-02T02:58:12;16.90;;;14.10;;
1759;SDS011;877;46.266;20.062;2023-07-02T03:00:37;15.57;;;14.07;;
1759;SDS011;877;46.266;20.062;2023-07-02T03:03:07;15.63;;;14.13;;
1759;SDS011;877;46.266;20.062;2023-07-02T03:05:33;14.23;;;12.60;;
1759;SDS011;877;46.266;20.062;2023-07-02T03:07:59;14.90;;;12.47;;
1759;SDS011;877;46.266;20.062;2023-07-02T03:10:24;13.50;;;12.07;;
1759;SDS011;877;46.266;20.062;2023-07-02T03:12:52;13.73;;;12.27;;
1759;SDS011;877;46.266;20.062;2023-07-02T03:15:19;13.80;;;11.80;;
1759;SDS011;877;46.266;20.062;2023-07-02T03:17:45;13.47;;;11.80;;
1759;SDS011;877;46.266;20.062;2023-07-02T03:20:11;14.77;;;13.33;;
1759;SDS011;877;46.266;20.062;2023-07-02T03:22:38;13.83;;;12.23;;
1759;SDS011;877;46.266;20.062;2023-07-02T03:25:03;16.07;;;12.10;;
1759;SDS011;877;46.266;20.062;2023-07-02T03:27:29;14.17;;;11.70;;
1759;SDS011;877;46.266;20.062;2023-07-02T03:29:55;16.03;;;12.47;;
1759;SDS011;877;46.266;20.062;2023-07-02T03:32:21;12.67;;;11.37;;
1759;SDS011;877;46.266;20.062;2023-07-02T03:34:47;12.50;;;11.20;;
1759;SDS011;877;46.266;20.062;2023-07-02T03:37:12;11.77;;;10.57;;
1759;SDS011;877;46.266;20.062;2023-07-02T03:39:38;13.87;;;11.73;;
1759;SDS011;877;46.266;20.062;2023-07-02T03:42:05;12.70;;;11.40;;
1759;SDS011;877;46.266;20.062;2023-07-02T03:44:31;13.33;;;10.73;;
1759;SDS011;877;46.266;20.062;2023-07-02T03:46:56;15.93;;;10.80;;
1759;SDS011;877;46.266;20.062;2023-07-02T03:49:23;12.67;;;11.43;;
1759;SDS011;877;46.266;20.062;2023-07-02T03:51:49;12.63;;;10.53;;
1759;SDS011;877;46.266;20.062;2023-07-02T03:54:15;12.97;;;11.67;;
1759;SDS011;877;46.266;20.062;2023-07-02T03:56:41;13.83;;;11.87;;
1759;SDS011;877;46.266;20.062;2023-07-02T03:59:07;13.40;;;11.27;;
1759;SDS011;877;46.266;20.062;2023-07-02T04:01:32;11.30;;;10.20;;
1759;SDS011;877;46.266;20.062;2023-07-02T04:03:58;12.80;;;11.40;;
1759;SDS011;877;46.266;20.062;2023-07-02T04:06:24;14.53;;;11.80;;
1759;SDS011;877;46.266;20.062;2023-07-02T04:08:50;12.20;;;10.77;;
1759;SDS011;877;46.266;20.062;2023-07-02T04:11:15;11.80;;;9.47;;
1759;SDS011;877;46.266;20.062;2023-07-02T04:13:41;13.20;;;10.00;;
1759;SDS011;877;46.266;20.062;2023-07-02T04:16:07;9.90;;;8.90;;
1759;SDS011;877;46.266;20.062;2023-07-02T04:18:33;11.63;;;9.80;;
1759;SDS011;877;46.266;20.062;2023-07-02T04:21:00;10.70;;;9.60;;
1759;SDS011;877;46.266;20.062;2023-07-02T04:23:26;10.97;;;9.83;;
1759;SDS011;877;46.266;20.062;2023-07-02T04:25:52;13.00;;;9.63;;
1759;SDS011;877;46.266;20.062;2023-07-02T04:28:18;11.13;;;9.40;;
1759;SDS011;877;46.266;20.062;2023-07-02T04:30:44;11.30;;;9.23;;
1759;SDS011;877;46.266;20.062;2023-07-02T04:33:10;10.87;;;9.77;;
1759;SDS011;877;46.266;20.062;2023-07-02T04:35:39;9.87;;;8.83;;
1759;SDS011;877;46.266;20.062;2023-07-02T04:38:05;12.50;;;9.20;;
1759;SDS011;877;46.266;20.062;2023-07-02T04:40:31;10.27;;;9.27;;
1759;SDS011;877;46.266;20.062;2023-07-02T04:42:57;12.03;;;9.60;;
1759;SDS011;877;46.266;20.062;2023-07-02T04:45:24;14.50;;;10.20;;
1759;SDS011;877;46.266;20.062;2023-07-02T04:47:50;12.83;;;9.60;;
1759;SDS011;877;46.266;20.062;2023-07-02T04:50:17;11.30;;;9.33;;
1759;SDS011;877;46.266;20.062;2023-07-02T04:52:44;10.80;;;9.43;;
1759;SDS011;877;46.266;20.062;2023-07-02T04:55:09;11.13;;;9.80;;
1759;SDS011;877;46.266;20.062;2023-07-02T04:57:37;10.97;;;9.80;;
1759;SDS011;877;46.266;20.062;2023-07-02T05:00:03;10.57;;;9.47;;
1759;SDS011;877;46.266;20.062;2023-07-02T05:02:32;10.93;;;8.83;;
1759;SDS011;877;46.266;20.062;2023-07-02T05:04:58;13.13;;;9.70;;
1759;SDS011;877;46.266;20.062;2023-07-02T05:07:23;10.83;;;9.73;;
1759;SDS011;877;46.266;20.062;2023-07-02T05:09:49;13.70;;;10.30;;
1759;SDS011;877;46.266;20.062;2023-07-02T05:12:17;12.43;;;9.63;;
1759;SDS011;877;46.266;20.062;2023-07-02T05:14:44;11.60;;;10.10;;
1759;SDS011;877;46.266;20.062;2023-07-02T05:17:11;11.80;;;10.07;;
1759;SDS011;877;46.266;20.062;2023-07-02T05:19:40;11.73;;;10.63;;
1759;SDS011;877;46.266;20.062;2023-07-02T05:22:06;11.60;;;10.40;;
1759;SDS011;877;46.266;20.062;2023-07-02T05:24:32;11.70;;;9.70;;
1759;SDS011;877;46.266;20.062;2023-07-02T05:26:59;11.87;;;10.63;;
1759;SDS011;877;46.266;20.062;2023-07-02T05:29:25;10.93;;;9.80;;
1759;SDS011;877;46.266;20.062;2023-07-02T05:31:50;12.80;;;10.70;;
1759;SDS011;877;46.266;20.062;2023-07-02T05:34:16;10.80;;;9.70;;
1759;SDS011;877;46.266;20.062;2023-07-02T05:36:44;12.80;;;10.80;;
1759;SDS011;877;46.266;20.062;2023-07-02T05:39:10;13.93;;;9.97;;
1759;SDS011;877;46.266;20.062;2023-07-02T05:41:35;13.40;;;9.90;;
1759;SDS011;877;46.266;20.062;2023-07-02T05:44:01;13.50;;;11.20;;
1759;SDS011;877;46.266;20.062;2023-07-02T05:46:27;12.73;;;10.60;;
1759;SDS011;877;46.266;20.062;2023-07-02T05:48:54;12.53;;;11.27;;
1759;SDS011;877;46.266;20.062;2023-07-02T05:51:24;12.77;;;10.50;;
1759;SDS011;877;46.266;20.062;2023-07-02T05:53:51;11.30;;;10.10;;
1759;SDS011;877;46.266;20.062;2023-07-02T05:56:17;16.97;;;9.80;;
1759;SDS011;877;46.266;20.062;2023-07-02T05:58:43;11.50;;;10.13;;
1759;SDS011;877;46.266;20.062;2023-07-02T06:01:10;12.30;;;9.10;;
1759;SDS011;877;46.266;20.062;2023-07-02T06:03:35;11.50;;;10.17;;
1759;SDS011;877;46.266;20.062;2023-07-02T06:06:02;10.97;;;9.30;;
1759;SDS011;877;46.266;20.062;2023-07-02T06:08:28;13.47;;;10.20;;
1759;SDS011;877;46.266;20.062;2023-07-02T06:10:54;10.80;;;9.70;;
1759;SDS011;877;46.266;20.062;2023-07-02T06:13:19;12.70;;;10.27;;
1759;SDS011;877;46.266;20.062;2023-07-02T06:15:45;12.63;;;11.07;;
1759;SDS011;877;46.266;20.062;2023-07-02T06:18:12;10.60;;;9.40;;
1759;SDS011;877;46.266;20.062;2023-07-02T06:20:38;15.20;;;9.87;;
1759;SDS011;877;46.266;20.062;2023-07-02T06:23:04;10.97;;;8.17;;
1759;SDS011;877;46.266;20.062;2023-07-02T06:25:29;12.00;;;9.03;;
1759;SDS011;877;46.266;20.062;2023-07-02T06:27:55;9.00;;;7.87;;
1759;SDS011;877;46.266;20.062;2023-07-02T06:30:23;9.90;;;7.17;;
1759;SDS011;877;46.266;20.062;2023-07-02T06:32:49;10.07;;;7.80;;
1759;SDS011;877;46.266;20.062;2023-07-02T06:35:15;10.40;;;7.67;;
1759;SDS011;877;46.266;20.062;2023-07-02T06:37:41;32.63;;;10.60;;
1759;SDS011;877;46.266;20.062;2023-07-02T06:40:07;26.40;;;13.50;;
1759;SDS011;877;46.266;20.062;2023-07-02T06:42:33;32.90;;;12.20;;
1759;SDS011;877;46.266;20.062;2023-07-02T06:45:03;19.40;;;11.63;;
1759;SDS011;877;46.266;20.062;2023-07-02T06:47:30;21.13;;;15.60;;
1759;SDS011;877;46.266;20.062;2023-07-02T06:49:55;26.50;;;18.23;;
1759;SDS011;877;46.266;20.062;2023-07-02T06:52:22;25.30;;;18.07;;
1759;SDS011;877;46.266;20.062;2023-07-02T06:54:48;33.20;;;21.20;;
1759;SDS011;877;46.266;20.062;2023-07-02T06:57:14;40.47;;;20.10;;
1759;SDS011;877;46.266;20.062;2023-07-02T06:59:39;23.50;;;16.63;;
1759;SDS011;877;46.266;20.062;2023-07-02T07:02:05;25.40;;;17.47;;
1759;SDS011;877;46.266;20.062;2023-07-02T07:04:31;28.40;;;19.20;;
1759;SDS011;877;46.266;20.062;2023-07-02T07:06:59;22.73;;;17.37;;
1759;SDS011;877;46.266;20.062;2023-07-02T07:09:28;22.03;;;18.23;;
1759;SDS011;877;46.266;20.062;2023-07-02T07:11:54;23.50;;;18.57;;
1759;SDS011;877;46.266;20.062;2023-07-02T07:14:20;23.00;;;15.97;;
1759;SDS011;877;46.266;20.062;2023-07-02T07:16:47;21.67;;;16.63;;
1759;SDS011;877;46.266;20.062;2023-07-02T07:19:12;24.90;;;19.43;;
1759;SDS011;877;46.266;20.062;2023-07-02T07:21:38;29.20;;;19.30;;
1759;SDS011;877;46.266;20.062;2023-07-02T07:24:06;23.10;;;18.20;;
1759;SDS011;877;46.266;20.062;2023-07-02T07:26:32;25.73;;;18.60;;
1759;SDS011;877;46.266;20.062;2023-07-02T07:28:57;23.20;;;18.50;;
1759;SDS011;877;46.266;20.062;2023-07-02T07:31:24;18.73;;;15.70;;
1759;SDS011;877;46.266;20.062;2023-07-02T07:33:50;23.37;;;17.23;;
1759;SDS011;877;46.266;20.062;2023-07-02T07:36:16;22.10;;;17.10;;
1759;SDS011;877;46.266;20.062;2023-07-02T07:38:45;22.20;;;17.67;;
1759;SDS011;877;46.266;20.062;2023-07-02T07:41:11;17.17;;;14.83;;
1759;SDS011;877;46.266;20.062;2023-07-02T07:43:37;18.00;;;16.10;;
1759;SDS011;877;46.266;20.062;2023-07-02T07:46:02;19.37;;;16.37;;
1759;SDS011;877;46.266;20.062;2023-07-02T07:48:28;21.37;;;17.10;;
1759;SDS011;877;46.266;20.062;2023-07-02T07:50:54;17.43;;;15.57;;
1759;SDS011;877;46.266;20.062;2023-07-02T07:53:20;18.40;;;15.70;;
1759;SDS011;877;46.266;20.062;2023-07-02T07:55:45;16.70;;;14.77;;
1759;SDS011;877;46.266;20.062;2023-07-02T07:58:11;20.77;;;16.00;;
1759;SDS011;877;46.266;20.062;2023-07-02T08:00:37;19.97;;;16.10;;
1759;SDS011;877;46.266;20.062;2023-07-02T08:03:03;17.63;;;15.77;;
1759;SDS011;877;46.266;20.062;2023-07-02T08:05:29;16.43;;;14.63;;
1759;SDS011;877;46.266;20.062;2023-07-02T08:07:56;16.90;;;15.10;;
1759;SDS011;877;46.266;20.062;2023-07-02T08:10:23;16.77;;;15.00;;
1759;SDS011;877;46.266;20.062;2023-07-02T08:12:50;15.73;;;14.13;;
1759;SDS011;877;46.266;20.062;2023-07-02T08:15:17;14.97;;;13.20;;
1759;SDS011;877;46.266;20.062;2023-07-02T08:17:43;15.47;;;12.27;;
1759;SDS011;877;46.266;20.062;2023-07-02T08:20:10;16.43;;;14.13;;
1759;SDS011;877;46.266;20.062;2023-07-02T08:22:37;17.47;;;12.67;;
1759;SDS011;877;46.266;20.062;2023-07-02T08:25:04;12.93;;;11.03;;
1759;SDS011;877;46.266;20.062;2023-07-02T08:27:30;14.90;;;12.23;;
1759;SDS011;877;46.266;20.062;2023-07-02T08:29:57;12.40;;;10.80;;
1759;SDS011;877;46.266;20.062;2023-07-02T08:32:22;13.37;;;11.97;;
1759;SDS011;877;46.266;20.062;2023-07-02T08:34:50;14.00;;;11.83;;
1759;SDS011;877;46.266;20.062;2023-07-02T08:37:17;13.43;;;12.03;;
1759;SDS011;877;46.266;20.062;2023-07-02T08:39:43;13.90;;;12.30;;
1759;SDS011;877;46.266;20.062;2023-07-02T08:42:08;13.63;;;12.23;;
1759;SDS011;877;46.266;20.062;2023-07-02T08:44:34;14.50;;;13.03;;
1759;SDS011;877;46.266;20.062;2023-07-02T08:47:00;13.47;;;12.17;;
1759;SDS011;877;46.266;20.062;2023-07-02T08:49:26;14.83;;;12.10;;
1759;SDS011;877;46.266;20.062;2023-07-02T08:51:52;13.33;;;12.00;;
1759;SDS011;877;46.266;20.062;2023-07-02T08:54:18;13.63;;;12.23;;
1759;SDS011;877;46.266;20.062;2023-07-02T08:56:45;14.63;;;12.33;;
1759;SDS011;877;46.266;20.062;2023-07-02T08:59:12;14.50;;;12.97;;
1759;SDS011;877;46.266;20.062;2023-07-02T09:04:20;13.00;;;11.77;;
1759;SDS011;877;46.266;20.062;2023-07-02T09:06:49;13.83;;;12.43;;
1759;SDS011;877;46.266;20.062;2023-07-02T09:09:16;14.53;;;12.50;;
1759;SDS011;877;46.266;20.062;2023-07-02T09:11:49;13.50;;;12.10;;
1759;SDS011;877;46.266;20.062;2023-07-02T09:14:29;14.90;;;13.30;;
1759;SDS011;877;46.266;20.062;2023-07-02T09:17:04;13.73;;;12.37;;
1759;SDS011;877;46.266;20.062;2023-07-02T09:19:31;15.10;;;12.17;;
1759;SDS011;877;46.266;20.062;2023-07-02T09:21:59;13.40;;;12.00;;
1759;SDS011;877;46.266;20.062;2023-07-02T09:24:26;13.53;;;12.17;;
1759;SDS011;877;46.266;20.062;2023-07-02T09:26:55;13.43;;;12.13;;
1759;SDS011;877;46.266;20.062;2023-07-02T09:29:25;12.23;;;11.03;;
1759;SDS011;877;46.266;20.062;2023-07-02T09:32:05;13.00;;;11.50;;
1759;SDS011;877;46.266;20.062;2023-07-02T09:34:35;11.60;;;10.50;;
1759;SDS011;877;46.266;20.062;2023-07-02T09:37:05;14.83;;;11.40;;
1759;SDS011;877;46.266;20.062;2023-07-02T09:39:32;11.50;;;10.10;;
1759;SDS011;877;46.266;20.062;2023-07-02T09:42:00;11.90;;;10.20;;
1759;SDS011;877;46.266;20.062;2023-07-02T09:44:30;11.07;;;9.90;;
1759;SDS011;877;46.266;20.062;2023-07-02T09:49:34;11.37;;;10.27;;
1759;SDS011;877;46.266;20.062;2023-07-02T09:52:03;12.70;;;11.50;;
1759;SDS011;877;46.266;20.062;2023-07-02T09:54:31;11.40;;;10.30;;
1759;SDS011;877;46.266;20.062;2023-07-02T09:56:57;11.40;;;9.90;;
1759;SDS011;877;46.266;20.062;2023-07-02T09:59:24;13.83;;;11.50;;
1759;SDS011;877;46.266;20.062;2023-07-02T10:01:50;13.10;;;11.60;;
1759;SDS011;877;46.266;20.062;2023-07-02T10:04:19;12.40;;;9.87;;
1759;SDS011;877;46.266;20.062;2023-07-02T10:06:49;10.97;;;9.80;;
1759;SDS011;877;46.266;20.062;2023-07-02T10:09:21;10.57;;;9.53;;
1759;SDS011;877;46.266;20.062;2023-07-02T10:11:59;12.47;;;11.23;;
1759;SDS011;877;46.266;20.062;2023-07-02T10:14:25;11.97;;;10.77;;
1759;SDS011;877;46.266;20.062;2023-07-02T10:16:52;13.33;;;10.47;;
1759;SDS011;877;46.266;20.062;2023-07-02T10:19:18;12.87;;;10.87;;
1759;SDS011;877;46.266;20.062;2023-07-02T10:21:45;11.50;;;10.20;;
1759;SDS011;877;46.266;20.062;2023-07-02T10:24:14;10.73;;;9.73;;
1759;SDS011;877;46.266;20.062;2023-07-02T10:26:51;12.20;;;10.40;;
1759;SDS011;877;46.266;20.062;2023-07-02T10:29:19;11.27;;;9.33;;
1759;SDS011;877;46.266;20.062;2023-07-02T10:31:49;11.60;;;9.53;;
1759;SDS011;877;46.266;20.062;2023-07-02T10:34:16;11.60;;;8.80;;
1759;SDS011;877;46.266;20.062;2023-07-02T10:36:55;11.70;;;9.80;;
1759;SDS011;877;46.266;20.062;2023-07-02T10:39:21;10.20;;;9.20;;
1759;SDS011;877;46.266;20.062;2023-07-02T10:41:47;10.70;;;9.33;;
1759;SDS011;877;46.266;20.062;2023-07-02T10:44:13;10.63;;;8.97;;
1759;SDS011;877;46.266;20.062;2023-07-02T10:46:45;10.10;;;9.03;;
1759;SDS011;877;46.266;20.062;2023-07-02T10:49:11;11.07;;;9.33;;
1759;SDS011;877;46.266;20.062;2023-07-02T10:51:37;10.73;;;8.00;;
1759;SDS011;877;46.266;20.062;2023-07-02T10:54:04;37.27;;;9.07;;
1759;SDS011;877;46.266;20.062;2023-07-02T10:56:31;13.83;;;10.10;;
1759;SDS011;877;46.266;20.062;2023-07-02T10:58:57;10.93;;;9.90;;
1759;SDS011;877;46.266;20.062;2023-07-02T11:01:24;10.50;;;9.40;;
1759;SDS011;877;46.266;20.062;2023-07-02T11:03:58;8.53;;;7.63;;
1759;SDS011;877;46.266;20.062;2023-07-02T11:06:32;9.43;;;8.43;;
1759;SDS011;877;46.266;20.062;2023-07-02T11:08:59;9.40;;;8.50;;
1759;SDS011;877;46.266;20.062;2023-07-02T11:11:25;12.70;;;8.60;;
1759;SDS011;877;46.266;20.062;2023-07-02T11:13:51;9.27;;;8.30;;
1759;SDS011;877;46.266;20.062;2023-07-02T11:16:24;9.87;;;8.50;;
1759;SDS011;877;46.266;20.062;2023-07-02T11:18:54;10.70;;;9.60;;
1759;SDS011;877;46.266;20.062;2023-07-02T11:21:33;12.20;;;9.70;;
1759;SDS011;877;46.266;20.062;2023-07-02T11:24:05;10.97;;;8.87;;
1759;SDS011;877;46.266;20.062;2023-07-02T11:29:12;10.90;;;8.77;;
1759;SDS011;877;46.266;20.062;2023-07-02T11:31:39;10.07;;;8.97;;
1759;SDS011;877;46.266;20.062;2023-07-02T11:34:11;10.87;;;9.77;;
1759;SDS011;877;46.266;20.062;2023-07-02T11:36:38;12.77;;;9.93;;
1759;SDS011;877;46.266;20.062;2023-07-02T11:39:04;11.00;;;9.20;;
1759;SDS011;877;46.266;20.062;2023-07-02T11:41:37;14.37;;;10.00;;
1759;SDS011;877;46.266;20.062;2023-07-02T11:44:06;10.50;;;9.33;;
1759;SDS011;877;46.266;20.062;2023-07-02T11:46:32;10.47;;;9.37;;
1759;SDS011;877;46.266;20.062;2023-07-02T11:49:02;11.40;;;9.67;;
1759;SDS011;877;46.266;20.062;2023-07-02T11:51:38;11.00;;;9.10;;
1759;SDS011;877;46.266;20.062;2023-07-02T11:54:05;11.50;;;10.30;;
1759;SDS011;877;46.266;20.062;2023-07-02T11:56:32;10.73;;;9.10;;
1759;SDS011;877;46.266;20.062;2023-07-02T11:58:58;11.13;;;8.93;;
1759;SDS011;877;46.266;20.062;2023-07-02T12:01:24;11.30;;;8.90;;
1759;SDS011;877;46.266;20.062;2023-07-02T12:03:50;10.43;;;8.80;;
1759;SDS011;877;46.266;20.062;2023-07-02T12:06:16;12.10;;;8.57;;
1759;SDS011;877;46.266;20.062;2023-07-02T12:08:42;10.60;;;8.30;;
1759;SDS011;877;46.266;20.062;2023-07-02T12:11:07;10.10;;;8.20;;
1759;SDS011;877;46.266;20.062;2023-07-02T12:13:33;17.30;;;9.53;;
1759;SDS011;877;46.266;20.062;2023-07-02T12:15:59;11.77;;;8.57;;
1759;SDS011;877;46.266;20.062;2023-07-02T12:18:25;9.43;;;8.40;;
1759;SDS011;877;46.266;20.062;2023-07-02T12:20:51;11.03;;;8.70;;
1759;SDS011;877;46.266;20.062;2023-07-02T12:23:16;10.70;;;7.83;;
1759;SDS011;877;46.266;20.062;2023-07-02T12:25:42;11.60;;;7.57;;
1759;SDS011;877;46.266;20.062;2023-07-02T12:28:08;9.30;;;7.63;;
1759;SDS011;877;46.266;20.062;2023-07-02T12:30:33;11.37;;;7.40;;
1759;SDS011;877;46.266;20.062;2023-07-02T12:32:59;8.87;;;7.30;;
1759;SDS011;877;46.266;20.062;2023-07-02T12:35:25;10.23;;;7.00;;
1759;SDS011;877;46.266;20.062;2023-07-02T12:37:51;11.10;;;8.40;;
1759;SDS011;877;46.266;20.062;2023-07-02T12:40:18;7.50;;;6.70;;
1759;SDS011;877;46.266;20.062;2023-07-02T12:42:45;7.40;;;6.30;;
1759;SDS011;877;46.266;20.062;2023-07-02T12:45:12;11.43;;;6.40;;
1759;SDS011;877;46.266;20.062;2023-07-02T12:47:39;6.83;;;5.70;;
1759;SDS011;877;46.266;20.062;2023-07-02T12:50:06;10.90;;;5.83;;
1759;SDS011;877;46.266;20.062;2023-07-02T12:52:33;8.50;;;5.80;;
1759;SDS011;877;46.266;20.062;2023-07-02T12:54:59;6.57;;;5.17;;
1759;SDS011;877;46.266;20.062;2023-07-02T12:57:26;6.73;;;5.40;;
1759;SDS011;877;46.266;20.062;2023-07-02T12:59:52;6.83;;;6.10;;
1759;SDS011;877;46.266;20.062;2023-07-02T13:02:18;6.10;;;5.47;;
1759;SDS011;877;46.266;20.062;2023-07-02T13:04:44;10.23;;;5.57;;
1759;SDS011;877;46.266;20.062;2023-07-02T13:07:10;8.03;;;5.50;;
1759;SDS011;877;46.266;20.062;2023-07-02T13:09:35;7.10;;;5.23;;
1759;SDS011;877;46.266;20.062;2023-07-02T13:12:01;8.83;;;5.73;;
1759;SDS011;877;46.266;20.062;2023-07-02T13:14:27;8.10;;;5.87;;
1759;SDS011;877;46.266;20.062;2023-07-02T13:16:53;6.40;;;5.27;;
1759;SDS011;877;46.266;20.062;2023-07-02T13:19:19;31.40;;;7.23;;
1759;SDS011;877;46.266;20.062;2023-07-02T13:21:45;8.73;;;6.20;;
1759;SDS011;877;46.266;20.062;2023-07-02T13:24:11;7.27;;;5.70;;
1759;SDS011;877;46.266;20.062;2023-07-02T13:26:39;8.40;;;6.20;;
1759;SDS011;877;46.266;20.062;2023-07-02T13:29:07;8.47;;;5.83;;
1759;SDS011;877;46.266;20.062;2023-07-02T13:31:33;7.00;;;5.67;;
1759;SDS011;877;46.266;20.062;2023-07-02T13:33:59;8.03;;;5.77;;
1759;SDS011;877;46.266;20.062;2023-07-02T13:36:26;6.30;;;5.20;;
1759;SDS011;877;46.266;20.062;2023-07-02T13:38:56;8.23;;;5.43;;
1759;SDS011;877;46.266;20.062;2023-07-02T13:41:22;5.63;;;4.97;;
1759;SDS011;877;46.266;20.062;2023-07-02T13:43:48;6.63;;;5.43;;
1759;SDS011;877;46.266;20.062;2023-07-02T13:46:14;11.10;;;5.87;;
1759;SDS011;877;46.266;20.062;2023-07-02T13:48:40;7.67;;;5.77;;
1759;SDS011;877;46.266;20.062;2023-07-02T13:51:06;7.53;;;5.17;;
1759;SDS011;877;46.266;20.062;2023-07-02T13:53:33;7.10;;;5.50;;
1759;SDS011;877;46.266;20.062;2023-07-02T13:55:59;9.00;;;6.20;;
1759;SDS011;877;46.266;20.062;2023-07-02T13:58:25;6.73;;;5.73;;
1759;SDS011;877;46.266;20.062;2023-07-02T14:00:54;6.93;;;5.67;;
1759;SDS011;877;46.266;20.062;2023-07-02T14:03:20;7.43;;;6.13;;
1759;SDS011;877;46.266;20.062;2023-07-02T14:05:46;7.90;;;5.80;;
1759;SDS011;877;46.266;20.062;2023-07-02T14:08:12;8.93;;;6.40;;
1759;SDS011;877;46.266;20.062;2023-07-02T14:10:38;6.77;;;5.60;;
1759;SDS011;877;46.266;20.062;2023-07-02T14:13:04;7.03;;;5.97;;
1759;SDS011;877;46.266;20.062;2023-07-02T14:15:30;8.23;;;6.53;;
1759;SDS011;877;46.266;20.062;2023-07-02T14:17:56;6.40;;;5.10;;
1759;SDS011;877;46.266;20.062;2023-07-02T14:20:23;8.13;;;5.70;;
1759;SDS011;877;46.266;20.062;2023-07-02T14:22:49;6.90;;;5.47;;
1759;SDS011;877;46.266;20.062;2023-07-02T14:25:15;6.33;;;5.30;;
1759;SDS011;877;46.266;20.062;2023-07-02T14:27:41;7.50;;;5.40;;
1759;SDS011;877;46.266;20.062;2023-07-02T14:30:07;8.20;;;5.63;;
1759;SDS011;877;46.266;20.062;2023-07-02T14:32:34;7.40;;;5.30;;
1759;SDS011;877;46.266;20.062;2023-07-02T14:35:01;10.93;;;5.17;;
1759;SDS011;877;46.266;20.062;2023-07-02T14:37:27;5.73;;;4.60;;
1759;SDS011;877;46.266;20.062;2023-07-02T14:39:53;6.93;;;4.30;;
1759;SDS011;877;46.266;20.062;2023-07-02T14:42:20;6.80;;;4.37;;
1759;SDS011;877;46.266;20.062;2023-07-02T14:44:46;7.53;;;4.80;;
1759;SDS011;877;46.266;20.062;2023-07-02T14:47:12;6.50;;;5.30;;
1759;SDS011;877;46.266;20.062;2023-07-02T14:49:38;9.10;;;4.93;;
1759;SDS011;877;46.266;20.062;2023-07-02T14:52:05;7.10;;;5.30;;
1759;SDS011;877;46.266;20.062;2023-07-02T14:54:31;6.77;;;4.47;;
1759;SDS011;877;46.266;20.062;2023-07-02T14:56:57;6.90;;;4.37;;
1759;SDS011;877;46.266;20.062;2023-07-02T14:59:23;7.90;;;5.13;;
1759;SDS011;877;46.266;20.062;2023-07-02T15:01:49;8.80;;;4.93;;